createdAt,value
2022-11-29T00:00:30.020Z,12.30
2022-11-29T00:02:56.626Z,16.45
2022-11-29T00:05:23.228Z,11.57
2022-11-29T00:07:49.892Z,9.50
2022-11-29T00:10:16.567Z,15.23
2022-11-29T00:12:43.137Z,11.05
2022-11-29T00:15:09.680Z,11.00
2022-11-29T00:17:36.367Z,14.30
2022-11-29T00:20:03.343Z,23.42
2022-11-29T00:22:30.233Z,23.52
2022-11-29T00:24:56.797Z,17.55
2022-11-29T00:27:23.519Z,18.00
2022-11-29T00:29:50.122Z,17.10
2022-11-29T00:32:16.643Z,17.80
2022-11-29T00:34:43.414Z,20.33
2022-11-29T00:37:10.218Z,14.68
2022-11-29T00:39:36.787Z,20.38
2022-11-29T00:42:03.594Z,23.00
2022-11-29T00:44:33.231Z,20.95
2022-11-29T00:46:59.918Z,24.58
2022-11-29T00:49:26.445Z,21.88
2022-11-29T00:51:53.034Z,26.35
2022-11-29T00:54:19.603Z,19.13
2022-11-29T00:56:46.161Z,21.52
2022-11-29T00:59:12.756Z,21.73
2022-11-29T01:01:39.333Z,20.42
2022-11-29T01:04:05.997Z,23.08
2022-11-29T01:06:32.794Z,22.98
2022-11-29T01:08:59.324Z,15.07
2022-11-29T01:11:27.851Z,21.80
2022-11-29T01:13:57.588Z,22.52
2022-11-29T01:16:24.709Z,27.00
2022-11-29T01:18:51.449Z,22.17
2022-11-29T01:21:21.921Z,25.13
2022-11-29T01:23:50.411Z,18.10
2022-11-29T01:26:20.418Z,20.90
2022-11-29T01:28:49.656Z,21.95
2022-11-29T01:31:20.694Z,14.02
2022-11-29T01:33:47.477Z,22.25
2022-11-29T01:36:14.763Z,18.63
2022-11-29T01:38:42.531Z,23.38
2022-11-29T01:41:29.980Z,21.85
2022-11-29T01:44:01.562Z,15.73
2022-11-29T01:46:30.832Z,12.93
2022-11-29T01:49:03.541Z,12.40
2022-11-29T01:51:31.292Z,10.77
2022-11-29T01:53:58.574Z,10.60
2022-11-29T01:56:25.655Z,13.55
2022-11-29T01:58:52.408Z,9.88
2022-11-29T02:01:19.095Z,25.42
2022-11-29T02:03:45.785Z,24.02
2022-11-29T02:06:13.131Z,16.65
2022-11-29T02:08:44.236Z,16.48
2022-11-29T02:11:45.019Z,24.70
2022-11-29T02:14:33.626Z,65.05
2022-11-29T02:17:15.144Z,133.00
2022-11-29T02:20:12.258Z,105.70
2022-11-29T02:22:56.253Z,78.95
2022-11-29T02:25:44.570Z,73.10
2022-11-29T02:28:36.664Z,10.90
2022-11-29T02:31:24.918Z,52.38
2022-11-29T02:34:15.091Z,174.65
2022-11-29T02:36:47.961Z,215.18
2022-11-29T02:39:35.689Z,154.70
2022-11-29T02:42:23.557Z,133.90
2022-11-29T02:44:58.926Z,287.35
2022-11-29T02:47:28.500Z,144.10
2022-11-29T02:50:07.173Z,124.78
2022-11-29T02:52:45.540Z,163.68
2022-11-29T02:55:34.875Z,235.30
2022-11-29T02:58:25.879Z,305.00
2022-11-29T03:01:11.359Z,448.45
2022-11-29T03:03:53.138Z,278.40
2022-11-29T03:06:45.897Z,167.40
2022-11-29T03:09:21.942Z,226.15
2022-11-29T03:12:18.689Z,369.83
2022-11-29T03:15:17.605Z,622.78
2022-11-29T03:18:05.601Z,554.22
2022-11-29T03:20:50.153Z,381.40
2022-11-29T03:23:25.602Z,416.50
2022-11-29T03:25:59.645Z,400.20
2022-11-29T03:29:11.053Z,391.73
2022-11-29T03:31:58.845Z,238.35
2022-11-29T03:34:25.358Z,439.95
2022-11-29T03:37:20.918Z,367.48
2022-11-29T03:40:02.550Z,324.95
2022-11-29T03:42:56.519Z,341.85
2022-11-29T03:45:48.603Z,435.03
2022-11-29T03:48:21.921Z,510.38
2022-11-29T03:50:59.926Z,385.15
2022-11-29T03:53:36.067Z,416.00
2022-11-29T03:56:21.913Z,260.77
2022-11-29T03:58:51.357Z,242.50
2022-11-29T04:01:45.661Z,222.45
2022-11-29T04:04:30.877Z,300.27
2022-11-29T04:07:16.383Z,308.83
2022-11-29T04:09:49.059Z,199.55
2022-11-29T04:12:49.341Z,195.95
2022-11-29T04:15:27.780Z,180.27
2022-11-29T04:18:12.196Z,166.75
2022-11-29T04:21:16.137Z,166.27
2022-11-29T04:24:10.384Z,317.80
2022-11-29T04:27:07.713Z,288.08
2022-11-29T04:29:46.215Z,392.30
2022-11-29T04:32:33.885Z,369.60
2022-11-29T04:35:33.970Z,517.40
2022-11-29T04:38:00.520Z,434.02
2022-11-29T04:40:51.782Z,319.08
2022-11-29T04:43:30.234Z,506.63
2022-11-29T04:46:37.574Z,433.77
2022-11-29T04:49:10.081Z,549.03
2022-11-29T04:51:42.375Z,470.03
2022-11-29T04:54:33.090Z,471.92
2022-11-29T04:57:08.808Z,493.10
2022-11-29T05:00:09.898Z,437.07
2022-11-29T05:02:54.893Z,426.83
2022-11-29T05:05:30.791Z,296.77
2022-11-29T05:08:16.411Z,371.80
2022-11-29T05:10:55.166Z,373.17
2022-11-29T05:13:56.602Z,431.33
2022-11-29T05:16:32.466Z,270.47
2022-11-29T05:19:07.978Z,436.93
2022-11-29T05:21:53.162Z,344.43
2022-11-29T05:24:44.000Z,356.13
2022-11-29T05:27:44.411Z,351.70
2022-11-29T05:30:17.837Z,347.97
2022-11-29T05:32:44.364Z,380.80
2022-11-29T05:35:26.281Z,301.00
2022-11-29T05:37:57.274Z,736.40
2022-11-29T05:40:46.665Z,299.87
2022-11-29T05:43:48.492Z,224.87
2022-11-29T05:46:26.801Z,204.02
2022-11-29T05:48:58.309Z,158.07
2022-11-29T05:51:40.210Z,148.87
2022-11-29T05:54:29.528Z,101.63
2022-11-29T05:57:37.298Z,88.65
2022-11-29T06:00:06.086Z,91.20
2022-11-29T06:02:44.572Z,85.60
2022-11-29T06:05:28.927Z,94.20
2022-11-29T06:08:16.888Z,84.20
2022-11-29T06:11:06.709Z,129.37
2022-11-29T06:13:42.987Z,84.78
2022-11-29T06:16:31.428Z,123.50
2022-11-29T06:19:23.971Z,174.45
2022-11-29T06:22:02.577Z,193.38
2022-11-29T06:24:34.386Z,107.50
2022-11-29T06:27:06.934Z,27.07
2022-11-29T06:29:54.393Z,24.40
2022-11-29T06:32:44.067Z,32.17
2022-11-29T06:35:16.880Z,18.02
2022-11-29T06:37:50.357Z,20.07
2022-11-29T06:40:17.299Z,15.48
2022-11-29T06:42:43.987Z,14.70
2022-11-29T06:45:15.087Z,21.95
2022-11-29T06:47:52.272Z,14.65
2022-11-29T06:50:24.855Z,17.45
2022-11-29T06:53:22.313Z,23.20
2022-11-29T06:56:18.256Z,17.30
2022-11-29T06:58:57.947Z,18.17
2022-11-29T07:01:42.011Z,16.35
2022-11-29T07:04:14.795Z,16.27
2022-11-29T07:06:41.737Z,21.10
2022-11-29T07:09:16.028Z,27.93
2022-11-29T07:11:43.149Z,30.17
2022-11-29T07:14:10.398Z,19.77
2022-11-29T07:16:53.153Z,20.17
2022-11-29T07:19:56.772Z,41.63
2022-11-29T07:23:01.009Z,14.57
2022-11-29T07:25:49.076Z,10.40
2022-11-29T07:29:12.894Z,14.20
2022-11-29T07:31:45.218Z,18.67
2022-11-29T07:34:33.525Z,14.97
2022-11-29T07:37:22.102Z,18.80
2022-11-29T07:39:58.054Z,17.53
2022-11-29T07:43:29.143Z,16.27
2022-11-29T07:45:57.500Z,15.03
2022-11-29T07:48:24.315Z,18.73
2022-11-29T07:50:50.968Z,15.50
2022-11-29T07:53:19.589Z,24.87
2022-11-29T07:55:46.709Z,15.67
2022-11-29T07:58:15.112Z,16.47
2022-11-29T08:00:42.742Z,36.03
2022-11-29T08:03:10.056Z,33.30
2022-11-29T08:05:38.515Z,19.70
2022-11-29T08:08:05.649Z,16.70
2022-11-29T08:10:32.600Z,12.80
2022-11-29T08:12:59.296Z,11.17
2022-11-29T08:15:26.148Z,19.47
2022-11-29T08:17:53.294Z,64.25
2022-11-29T08:20:19.941Z,43.42
2022-11-29T08:22:57.332Z,44.77
2022-11-29T08:25:24.607Z,48.58
2022-11-29T08:27:51.812Z,84.47
2022-11-29T08:30:22.226Z,30.23
2022-11-29T08:32:52.734Z,20.67
2022-11-29T08:35:21.934Z,22.77
2022-11-29T08:37:49.071Z,29.90
2022-11-29T08:40:16.603Z,19.20
2022-11-29T08:42:43.256Z,17.90
2022-11-29T08:45:11.157Z,13.80
2022-11-29T08:47:38.965Z,11.97
2022-11-29T08:50:14.279Z,12.48
2022-11-29T08:53:02.398Z,8.95
2022-11-29T08:55:36.284Z,14.67
2022-11-29T08:58:08.806Z,13.77
2022-11-29T09:00:36.506Z,15.53
2022-11-29T09:03:24.292Z,15.47
2022-11-29T09:05:51.972Z,13.07
2022-11-29T09:08:19.028Z,12.82
2022-11-29T09:10:46.025Z,13.75
2022-11-29T09:13:12.859Z,14.60
2022-11-29T09:15:41.919Z,15.67
2022-11-29T09:18:08.618Z,13.48
2022-11-29T09:20:35.462Z,28.07
2022-11-29T09:23:02.356Z,34.53
2022-11-29T09:25:29.297Z,18.73
2022-11-29T09:27:58.921Z,17.08
2022-11-29T09:30:26.440Z,15.20
2022-11-29T09:32:53.125Z,14.00
2022-11-29T09:35:19.729Z,10.65
2022-11-29T09:37:46.315Z,10.65
2022-11-29T09:40:19.660Z,13.07
2022-11-29T09:42:52.273Z,12.52
2022-11-29T09:45:36.588Z,14.75
2022-11-29T09:48:24.566Z,12.98
2022-11-29T09:51:15.719Z,14.90
2022-11-29T09:54:15.978Z,13.15
2022-11-29T09:56:46.497Z,13.90
2022-11-29T09:59:25.535Z,16.30
2022-11-29T10:02:06.226Z,11.77
2022-11-29T10:04:44.416Z,12.50
2022-11-29T10:07:21.831Z,11.48
2022-11-29T10:10:16.165Z,11.73
2022-11-29T10:12:42.733Z,14.07
2022-11-29T10:15:28.561Z,13.27
2022-11-29T10:18:22.200Z,16.08
2022-11-29T10:20:51.897Z,10.50
2022-11-29T10:23:29.584Z,14.35
2022-11-29T10:25:57.861Z,8.52
2022-11-29T10:28:31.304Z,13.88
2022-11-29T10:31:14.172Z,12.70
2022-11-29T10:33:42.073Z,9.65
2022-11-29T10:36:47.549Z,8.60
2022-11-29T10:39:37.160Z,11.15
2022-11-29T10:42:25.820Z,10.48
2022-11-29T10:44:52.554Z,10.38
2022-11-29T10:47:19.176Z,7.32
2022-11-29T10:49:45.839Z,10.30
2022-11-29T10:52:20.071Z,4.40
2022-11-29T10:54:47.705Z,4.68
2022-11-29T10:57:17.734Z,9.10
2022-11-29T11:00:09.860Z,6.25
2022-11-29T11:02:36.995Z,7.55
2022-11-29T11:05:13.327Z,10.55
2022-11-29T11:07:40.087Z,6.63
2022-11-29T11:10:26.491Z,9.38
2022-11-29T11:13:08.225Z,9.07
2022-11-29T11:15:35.126Z,11.00
2022-11-29T11:18:07.038Z,5.88
2022-11-29T11:20:37.911Z,7.55
2022-11-29T11:23:08.039Z,10.70
2022-11-29T11:25:40.066Z,7.88
2022-11-29T11:28:22.323Z,9.43
2022-11-29T11:31:04.559Z,10.10
2022-11-29T11:33:34.914Z,9.73
2022-11-29T11:36:26.432Z,10.18
2022-11-29T11:38:58.355Z,8.98
2022-11-29T11:41:53.830Z,11.43
2022-11-29T11:44:46.552Z,12.05
2022-11-29T11:47:17.862Z,14.10
2022-11-29T11:49:49.639Z,13.80
2022-11-29T11:52:21.639Z,10.80
2022-11-29T11:54:58.028Z,9.30
2022-11-29T11:57:25.759Z,10.55
2022-11-29T11:59:54.914Z,10.85
2022-11-29T12:02:27.446Z,11.82
2022-11-29T12:04:58.924Z,9.57
2022-11-29T12:08:06.877Z,11.73
2022-11-29T12:10:32.423Z,9.63
2022-11-29T12:13:00.438Z,11.65
2022-11-29T12:15:38.307Z,8.32
2022-11-29T12:18:22.766Z,11.38
2022-11-29T12:21:27.572Z,11.18
2022-11-29T12:24:03.335Z,7.88
2022-11-29T12:26:58.391Z,12.25
2022-11-29T12:29:30.314Z,10.13
2022-11-29T12:32:08.850Z,9.98
2022-11-29T12:34:50.456Z,12.55
2022-11-29T12:37:57.485Z,8.02
2022-11-29T12:40:49.316Z,8.45
2022-11-29T12:43:35.544Z,13.50
2022-11-29T12:46:13.893Z,9.90
2022-11-29T12:48:55.417Z,8.18
2022-11-29T12:51:54.989Z,7.88
2022-11-29T12:54:36.727Z,9.55
2022-11-29T12:57:35.357Z,7.63
2022-11-29T13:00:08.171Z,8.80
2022-11-29T13:02:47.147Z,6.10
2022-11-29T13:05:36.573Z,7.68
2022-11-29T13:08:21.738Z,9.00
2022-11-29T13:11:00.311Z,8.38
2022-11-29T13:13:42.998Z,9.63
2022-11-29T13:16:31.331Z,8.45
2022-11-29T13:19:07.162Z,12.77
2022-11-29T13:21:42.943Z,9.57
2022-11-29T13:24:25.773Z,7.13
2022-11-29T13:26:53.387Z,8.27
2022-11-29T13:29:20.783Z,8.88
2022-11-29T13:31:48.976Z,9.82
2022-11-29T13:34:23.101Z,10.90
2022-11-29T13:37:07.104Z,10.15
2022-11-29T13:39:55.334Z,11.35
2022-11-29T13:42:39.006Z,11.85
2022-11-29T13:45:37.716Z,10.75
2022-11-29T13:48:46.619Z,8.98
2022-11-29T13:51:35.721Z,7.40
2022-11-29T13:54:26.953Z,12.57
2022-11-29T13:57:06.343Z,10.55
2022-11-29T13:59:37.000Z,9.20
2022-11-29T14:02:24.794Z,10.73
2022-11-29T14:04:52.087Z,7.72
2022-11-29T14:07:19.893Z,14.55
2022-11-29T14:10:07.000Z,10.95
2022-11-29T14:12:53.502Z,11.48
2022-11-29T14:15:27.705Z,8.25
2022-11-29T14:18:01.178Z,10.35
2022-11-29T14:20:30.723Z,7.18
2022-11-29T14:23:06.463Z,10.23
2022-11-29T14:28:20.776Z,8.27
2022-11-29T14:30:52.981Z,10.85
2022-11-29T14:33:26.856Z,10.35
2022-11-29T14:36:38.186Z,8.55
2022-11-29T14:39:19.001Z,12.10
2022-11-29T14:41:51.176Z,9.38
2022-11-29T14:44:24.826Z,10.63
2022-11-29T14:47:15.811Z,6.95
2022-11-29T14:49:44.631Z,12.55
2022-11-29T14:52:13.989Z,11.63
2022-11-29T14:54:54.538Z,12.32
2022-11-29T14:57:52.753Z,8.05
2022-11-29T15:00:22.310Z,10.93
2022-11-29T15:02:55.142Z,11.85
2022-11-29T15:05:30.923Z,9.20
2022-11-29T15:08:35.120Z,7.72
2022-11-29T15:11:13.716Z,11.07
2022-11-29T15:13:54.740Z,10.77
2022-11-29T15:16:34.799Z,11.55
2022-11-29T15:19:26.333Z,12.38
2022-11-29T15:22:08.463Z,10.43
2022-11-29T15:24:55.202Z,10.65
2022-11-29T15:27:23.021Z,7.68
2022-11-29T15:29:49.845Z,10.65
2022-11-29T15:32:29.555Z,7.80
2022-11-29T15:34:57.078Z,13.80
2022-11-29T15:37:39.955Z,7.95
2022-11-29T15:40:15.100Z,14.65
2022-11-29T15:43:19.144Z,9.38
2022-11-29T15:45:50.740Z,6.75
2022-11-29T15:48:23.850Z,8.63
2022-11-29T15:50:53.794Z,10.02
2022-11-29T15:53:26.760Z,10.48
2022-11-29T15:55:56.721Z,9.48
2022-11-29T15:58:27.345Z,7.00
2022-11-29T16:00:55.087Z,7.38
2022-11-29T16:03:26.667Z,15.60
2022-11-29T16:06:03.639Z,9.65
2022-11-29T16:08:35.298Z,13.15
2022-11-29T16:11:02.179Z,8.95
2022-11-29T16:13:32.146Z,12.32
2022-11-29T16:16:19.630Z,17.15
2022-11-29T16:18:48.021Z,16.17
2022-11-29T16:21:25.481Z,10.65
2022-11-29T16:23:53.200Z,20.60
2022-11-29T16:26:32.808Z,30.85
2022-11-29T16:29:00.425Z,21.08
2022-11-29T16:31:36.409Z,13.18
2022-11-29T16:34:09.155Z,15.15
2022-11-29T16:36:36.224Z,18.80
2022-11-29T16:39:07.927Z,17.75
2022-11-29T16:41:37.829Z,23.25
2022-11-29T16:44:06.934Z,15.23
2022-11-29T16:46:40.018Z,12.65
2022-11-29T16:49:35.895Z,12.15
2022-11-29T16:52:04.115Z,12.73
2022-11-29T16:54:35.502Z,9.82
2022-11-29T16:57:05.998Z,11.93
2022-11-29T16:59:32.616Z,7.30
2022-11-29T17:01:59.441Z,7.90
2022-11-29T17:04:26.493Z,16.45
2022-11-29T17:06:55.021Z,11.05
2022-11-29T17:09:25.194Z,10.75
2022-11-29T17:11:52.183Z,14.35
2022-11-29T17:14:18.797Z,11.02
2022-11-29T17:16:49.227Z,12.02
2022-11-29T17:19:16.505Z,19.15
2022-11-29T17:21:43.609Z,13.90
2022-11-29T17:24:13.711Z,15.82
2022-11-29T17:26:41.689Z,11.93
2022-11-29T17:29:10.908Z,18.35
2022-11-29T17:31:37.804Z,18.77
2022-11-29T17:34:04.928Z,16.60
2022-11-29T17:36:31.712Z,13.82
2022-11-29T17:39:02.365Z,19.17
2022-11-29T17:41:30.431Z,17.25
2022-11-29T17:43:57.883Z,19.65
2022-11-29T17:46:36.080Z,18.05
2022-11-29T17:49:06.803Z,20.45
2022-11-29T17:51:52.301Z,20.48
2022-11-29T17:54:19.688Z,21.17
2022-11-29T17:56:46.486Z,19.90
2022-11-29T17:59:13.070Z,19.00
2022-11-29T18:01:39.831Z,21.35
2022-11-29T18:04:08.369Z,29.50
2022-11-29T18:06:37.824Z,24.10
2022-11-29T18:09:06.042Z,24.67
2022-11-29T18:11:47.468Z,20.67
2022-11-29T18:14:17.604Z,21.92
2022-11-29T18:16:45.648Z,21.08
2022-11-29T18:19:15.367Z,23.67
2022-11-29T18:21:42.737Z,25.33
2022-11-29T18:24:09.841Z,23.13
2022-11-29T18:26:37.721Z,18.95
2022-11-29T18:29:05.792Z,21.85
2022-11-29T18:31:35.207Z,22.35
2022-11-29T18:34:07.248Z,24.50
2022-11-29T18:36:37.113Z,24.48
2022-11-29T18:39:07.313Z,22.40
2022-11-29T18:41:33.845Z,17.58
2022-11-29T18:44:03.314Z,20.45
2022-11-29T18:46:32.900Z,22.00
2022-11-29T18:49:02.255Z,26.45
2022-11-29T18:51:30.200Z,20.35
2022-11-29T18:53:58.046Z,20.63
2022-11-29T18:56:26.826Z,19.05
2022-11-29T18:58:58.639Z,21.53
2022-11-29T19:01:28.922Z,18.42
2022-11-29T19:03:58.404Z,18.43
2022-11-29T19:06:38.604Z,26.35
2022-11-29T19:09:07.940Z,27.50
2022-11-29T19:11:35.576Z,34.25
2022-11-29T19:14:05.034Z,23.73
2022-11-29T19:16:33.769Z,27.38
2022-11-29T19:19:01.689Z,36.97
2022-11-29T19:21:31.817Z,27.27
2022-11-29T19:24:01.147Z,28.57
2022-11-29T19:26:30.088Z,28.83
2022-11-29T19:28:57.257Z,30.05
2022-11-29T19:31:27.057Z,32.60
2022-11-29T19:33:54.900Z,27.13
2022-11-29T19:36:23.890Z,40.37
2022-11-29T19:38:53.767Z,37.23
2022-11-29T19:41:29.405Z,43.60
2022-11-29T19:43:58.046Z,31.88
2022-11-29T19:46:27.787Z,26.80
2022-11-29T19:48:56.316Z,27.37
2022-11-29T19:51:24.354Z,27.40
2022-11-29T19:53:55.854Z,28.37
2022-11-29T19:56:23.527Z,36.60
2022-11-29T19:58:50.592Z,38.23
2022-11-29T20:01:23.079Z,44.73
2022-11-29T20:03:50.607Z,44.07
2022-11-29T20:06:18.647Z,51.07
2022-11-29T20:08:45.863Z,42.27
2022-11-29T20:11:23.476Z,33.13
2022-11-29T20:13:56.347Z,49.77
2022-11-29T20:16:23.574Z,49.90
2022-11-29T20:18:51.644Z,44.87
2022-11-29T20:21:30.005Z,50.37
2022-11-29T20:23:58.748Z,42.63
2022-11-29T20:26:26.799Z,54.17
2022-11-29T20:28:53.482Z,55.43
2022-11-29T20:31:22.975Z,50.10
2022-11-29T20:33:51.860Z,48.53
2022-11-29T20:36:40.208Z,52.17
2022-11-29T20:39:12.839Z,51.80
2022-11-29T20:42:16.800Z,53.17
2022-11-29T20:44:55.174Z,55.20
2022-11-29T20:47:24.428Z,62.33
2022-11-29T20:49:51.482Z,61.63
2022-11-29T20:52:40.678Z,44.83
2022-11-29T20:55:07.636Z,56.63
2022-11-29T20:57:34.338Z,54.43
2022-11-29T21:00:00.952Z,57.80
2022-11-29T21:02:27.740Z,53.03
2022-11-29T21:04:54.369Z,58.87
2022-11-29T21:07:21.187Z,68.10
2022-11-29T21:09:47.824Z,53.07
2022-11-29T21:12:15.050Z,59.13
2022-11-29T21:14:42.994Z,54.47
2022-11-29T21:17:10.680Z,49.67
2022-11-29T21:19:37.717Z,66.60
2022-11-29T21:22:48.340Z,68.87
2022-11-29T21:25:36.792Z,59.70
2022-11-29T21:28:08.821Z,77.60
2022-11-29T21:30:35.775Z,67.10
2022-11-29T21:33:02.668Z,84.87
2022-11-29T21:35:29.261Z,74.87
2022-11-29T21:37:58.882Z,79.57
2022-11-29T21:40:25.699Z,75.60
2022-11-29T21:42:52.284Z,85.10
2022-11-29T21:45:18.927Z,81.73
2022-11-29T21:47:46.758Z,68.43
2022-11-29T21:50:13.841Z,69.93
2022-11-29T21:52:40.597Z,76.50
2022-11-29T21:55:07.559Z,76.37
2022-11-29T21:57:34.150Z,69.53
2022-11-29T22:00:00.806Z,78.17
2022-11-29T22:02:27.463Z,66.83
2022-11-29T22:04:54.090Z,47.20
2022-11-29T22:07:20.709Z,57.33
2022-11-29T22:09:47.392Z,59.33
2022-11-29T22:12:33.248Z,66.90
2022-11-29T22:15:00.753Z,64.83
2022-11-29T22:17:27.410Z,56.70
2022-11-29T22:19:54.011Z,74.47
2022-11-29T22:22:20.686Z,71.67
2022-11-29T22:24:47.580Z,395.97
2022-11-29T22:27:14.505Z,126.00
2022-11-29T22:29:41.055Z,77.13
2022-11-29T22:32:07.652Z,67.87
2022-11-29T22:34:34.217Z,71.47
2022-11-29T22:37:00.858Z,186.40
2022-11-29T22:39:27.481Z,184.37
2022-11-29T22:41:55.244Z,360.47
2022-11-29T22:44:23.422Z,421.03
2022-11-29T22:46:50.711Z,450.47
2022-11-29T22:49:17.408Z,184.53
2022-11-29T22:51:43.994Z,178.67
2022-11-29T22:54:11.846Z,228.00
2022-11-29T22:56:41.166Z,134.93
2022-11-29T22:59:08.528Z,121.63
2022-11-29T23:01:37.486Z,86.73
2022-11-29T23:04:07.333Z,95.33
2022-11-29T23:06:40.215Z,98.43
2022-11-29T23:09:15.966Z,84.93
2022-11-29T23:11:44.525Z,72.83
2022-11-29T23:14:11.497Z,80.97
2022-11-29T23:16:38.465Z,65.10
2022-11-29T23:19:05.050Z,76.93
2022-11-29T23:21:35.054Z,78.83
2022-11-29T23:24:02.447Z,77.13
2022-11-29T23:26:34.053Z,79.27
2022-11-29T23:29:00.706Z,61.37
2022-11-29T23:31:27.380Z,70.57
2022-11-29T23:33:54.190Z,74.00
2022-11-29T23:36:21.073Z,58.53
2022-11-29T23:38:47.904Z,74.67
2022-11-29T23:41:14.962Z,62.33
2022-11-29T23:43:42.220Z,73.70
2022-11-29T23:46:23.644Z,68.60
2022-11-29T23:48:50.784Z,67.23
2022-11-29T23:51:18.620Z,86.30
2022-11-29T23:53:46.726Z,65.40
2022-11-29T23:56:17.584Z,79.67
2022-11-29T23:58:45.120Z,86.97
